Time;durP1;ratioP1;P1;durP2;ratioP2;P2;SDS_P1;SDS_P2;PMS_P1;PMS_P2;Temp;Humidity;BMP_temperature;BMP_pressure;BME280_temperature;BME280_humidity;BME280_pressure;Samples;Min_cycle;Max_cycle;Signal;HPM_P1;HPM_P2
2022/03/12 00:01:33;;;;;;;13.25;8.02;;;3.20;63.40;;;;;;5064260;28;20047;-75
2022/03/12 00:04:20;;;;;;;22.67;8.50;;;3.20;64.00;;;;;;5080397;28;20027;-74
2022/03/12 00:06:49;;;;;;;10.50;6.50;;;3.20;63.50;;;;;;5083131;28;20479;-75
2022/03/12 00:12:59;;;;;;;20.40;7.88;;;3.20;63.20;;;;;;5083961;28;20481;-75
2022/03/12 00:15:37;;;;;;;16.73;9.70;;;3.20;63.50;;;;;;5085118;28;20047;-74
2022/03/12 00:18:40;;;;;;;16.10;9.70;;;3.10;63.70;;;;;;5064827;28;20042;-75
2022/03/12 00:21:11;;;;;;;16.55;7.85;;;3.10;63.40;;;;;;5066270;28;20044;-77
2022/03/12 00:24:27;;;;;;;12.18;8.10;;;3.00;63.50;;;;;;5057075;28;20448;-75
2022/03/12 00:29:48;;;;;;;14.15;9.60;;;3.00;63.90;;;;;;5041963;28;20158;-75
2022/03/12 00:32:36;;;;;;;20.45;9.57;;;2.90;64.20;;;;;;5081947;28;20170;-76
2022/03/12 00:35:48;;;;;;;16.40;8.75;;;2.80;63.90;;;;;;5081348;28;20029;-75
2022/03/12 00:42:52;;;;;;;;;;;;;;;;;;;;;
2022/03/12 00:44:49;;;;;;;13.25;8.32;;;2.70;64.00;;;;;;5000442;28;20065;-75
2022/03/12 00:47:40;;;;;;;13.27;7.97;;;2.70;63.00;;;;;;5064000;28;20184;-75
2022/03/12 00:50:10;;;;;;;13.20;8.07;;;2.70;62.90;;;;;;5063673;28;20024;-76
2022/03/12 00:53:25;;;;;;;15.75;8.50;;;2.70;62.90;;;;;;5074548;28;20486;-75
2022/03/12 00:56:20;;;;;;;10.27;7.55;;;2.60;62.80;;;;;;5054762;28;20514;-75
2022/03/12 01:01:54;;;;;;;14.95;8.10;;;2.70;62.40;;;;;;5062073;28;20128;-75
2022/03/12 01:07:50;;;;;;;10.50;6.72;;;2.70;62.70;;;;;;5058074;28;20035;-75
2022/03/12 01:14:29;;;;;;;19.25;8.38;;;2.70;62.60;;;;;;4990038;28;20065;-75
2022/03/12 01:30:17;;;;;;;13.07;7.28;;;2.50;60.40;;;;;;4977538;28;20041;-75
2022/03/12 01:56:10;;;;;;;10.88;7.13;;;2.60;59.20;;;;;;4911940;29;20051;-76
2022/03/12 02:26:51;;;;;;;11.73;6.43;;;2.40;59.60;;;;;;4834281;29;20037;-76
2022/03/12 02:36:29;;;;;;;10.65;6.38;;;2.40;59.20;;;;;;4852901;29;20105;-75
2022/03/12 02:50:17;;;;;;;13.57;7.13;;;2.40;58.70;;;;;;5048676;28;20042;-75
2022/03/12 03:17:25;;;;;;;9.80;6.05;;;2.40;57.80;;;;;;5075926;28;20521;-75
2022/03/12 03:24:01;;;;;;;;;;;;;;;;;;;;;
2022/03/12 03:27:12;;;;;;;11.57;6.72;;;2.30;58.30;;;;;;5085291;28;20024;-76
2022/03/12 03:43:48;;;;;;;11.50;5.82;;;2.40;57.30;;;;;;4963882;28;20462;-76
2022/03/12 03:54:17;;;;;;;10.20;6.15;;;2.20;58.10;;;;;;5024440;28;20061;-76
2022/03/12 04:03:02;;;;;;;11.98;6.40;;;1.80;58.50;;;;;;4999464;28;20582;-76
2022/03/12 04:26:04;;;;;;;9.98;6.22;;;1.60;61.30;;;;;;4925829;29;20036;-76
2022/03/12 04:43:10;;;;;;;;;;;;;;;;;;;;;
2022/03/12 04:46:17;;;;;;;9.63;6.17;;;1.50;60.50;;;;;;4959925;28;20408;-76
2022/03/12 04:49:24;;;;;;;;;;;;;;;;;;;;;
2022/03/12 04:56:54;;;;;;;;;;;;;;;;;;;;;
2022/03/12 05:00:25;;;;;;;9.60;5.68;;;1.50;61.40;;;;;;4910432;29;20036;-75
2022/03/12 05:10:15;;;;;;;17.92;6.47;;;1.50;60.80;;;;;;4925546;29;20091;-75
2022/03/12 05:13:43;;;;;;;11.00;5.93;;;1.50;60.70;;;;;;4900021;29;20023;-75
2022/03/12 05:23:33;;;;;;;10.20;5.93;;;1.50;62.70;;;;;;4910986;28;20076;-76
2022/03/12 05:36:50;;;;;;;9.55;6.80;;;1.60;61.90;;;;;;5074031;28;20044;-76
2022/03/12 05:39:59;;;;;;;9.85;6.45;;;1.60;61.90;;;;;;5016273;28;20042;-76
2022/03/12 05:42:37;;;;;;;8.55;6.90;;;1.60;62.40;;;;;;5018895;28;20037;-75
2022/03/12 05:45:18;;;;;;;11.00;6.78;;;1.60;62.30;;;;;;5020277;28;20042;-76
2022/03/12 05:48:44;;;;;;;11.93;7.35;;;1.70;61.80;;;;;;5008331;28;20418;-76
2022/03/12 05:55:13;;;;;;;14.18;7.15;;;1.90;62.60;;;;;;4930370;29;20724;-75
2022/03/12 05:57:49;;;;;;;11.30;6.53;;;2.00;61.90;;;;;;4967049;28;20532;-75
2022/03/12 06:00:49;;;;;;;12.88;6.72;;;2.10;62.00;;;;;;4980861;28;20073;-76
2022/03/12 06:03:46;;;;;;;;;;;;;;;;;;;;;
2022/03/12 06:06:24;;;;;;;12.48;7.35;;;2.30;61.60;;;;;;4982158;28;20042;-75
2022/03/12 06:09:18;;;;;;;10.15;7.15;;;2.40;62.30;;;;;;4978308;28;20049;-76
2022/03/12 06:11:45;;;;;;;11.68;6.38;;;2.40;61.00;;;;;;5022556;28;20567;-76
2022/03/12 06:14:30;;;;;;;9.40;6.75;;;2.60;60.60;;;;;;5084226;28;20046;-76
2022/03/12 06:17:00;;;;;;;9.90;7.10;;;2.70;60.50;;;;;;5062166;28;20050;-76
2022/03/12 06:20:03;;;;;;;9.85;7.10;;;2.80;59.70;;;;;;5086443;28;20042;-76
2022/03/12 06:22:37;;;;;;;13.15;7.20;;;2.90;59.60;;;;;;5062261;28;20107;-76
2022/03/12 06:25:06;;;;;;;9.93;6.80;;;2.90;59.30;;;;;;5084490;28;20032;-76
2022/03/12 06:27:54;;;;;;;10.48;6.70;;;3.00;59.50;;;;;;5083708;28;20046;-75
2022/03/12 06:30:33;;;;;;;9.55;6.70;;;3.10;59.20;;;;;;5070844;28;20032;-75
2022/03/12 06:33:31;;;;;;;9.27;6.68;;;3.20;59.20;;;;;;5084852;28;20028;-76
2022/03/12 06:36:23;;;;;;;11.23;7.10;;;3.30;58.50;;;;;;5079810;28;20036;-75
2022/03/12 06:38:55;;;;;;;14.07;6.82;;;3.30;58.70;;;;;;5072066;28;20052;-76
2022/03/12 06:41:25;;;;;;;;;;;3.40;58.40;;;;;;5087432;28;20384;-75
2022/03/12 06:44:15;;;;;;;;;;;;;;;;;;;;;
2022/03/12 06:47:10;;;;;;;;;;;;;;;;;;;;;
2022/03/12 06:49:43;;;;;;;9.13;6.50;;;3.50;57.50;;;;;;5107411;28;20016;-76
2022/03/12 06:52:15;;;;;;;;;;;3.60;57.70;;;;;;5082160;28;20031;-76
2022/03/12 06:54:55;;;;;;;10.40;6.97;;;3.70;57.80;;;;;;5083829;28;19965;-76
2022/03/12 06:57:25;;;;;;;9.25;6.82;;;3.80;58.10;;;;;;5101735;28;20040;-76
2022/03/12 06:59:51;;;;;;;11.70;6.68;;;3.90;57.60;;;;;;5108789;28;20095;-77
2022/03/12 07:02:26;;;;;;;10.40;6.57;;;3.90;57.10;;;;;;5085576;28;20131;-78
2022/03/12 07:04:52;;;;;;;10.35;6.43;;;4.00;57.40;;;;;;5083743;28;20065;-75
2022/03/12 07:07:20;;;;;;;9.30;6.72;;;4.00;57.20;;;;;;5103931;28;20555;-77
2022/03/12 07:10:00;;;;;;;8.80;6.57;;;4.10;57.30;;;;;;5105664;28;20077;-78
2022/03/12 07:13:06;;;;;;;8.70;6.32;;;4.20;57.10;;;;;;5102736;28;20031;-78
2022/03/12 07:15:35;;;;;;;13.88;6.05;;;4.20;56.50;;;;;;5084194;28;20043;-77
2022/03/12 07:18:03;;;;;;;9.90;6.75;;;4.20;56.50;;;;;;5087323;28;20123;-77
2022/03/12 07:20:29;;;;;;;9.35;6.60;;;4.30;57.00;;;;;;5090121;28;20446;-78
2022/03/12 07:23:07;;;;;;;12.23;6.43;;;4.40;57.00;;;;;;5105796;28;20504;-77
2022/03/12 07:25:35;;;;;;;9.70;6.18;;;4.50;56.50;;;;;;5091369;28;20020;-76
2022/03/12 07:28:10;;;;;;;13.60;7.30;;;4.60;57.70;;;;;;5102570;28;20051;-75
2022/03/12 07:30:39;;;;;;;8.85;6.28;;;4.70;58.10;;;;;;5084430;28;20031;-77
2022/03/12 07:33:34;;;;;;;11.65;6.68;;;4.70;56.50;;;;;;5104405;27;20024;-76
2022/03/12 07:36:00;;;;;;;11.85;6.47;;;4.80;57.20;;;;;;5100300;28;20577;-77
2022/03/12 07:38:32;;;;;;;9.45;6.00;;;4.90;56.50;;;;;;5104143;28;20395;-76
2022/03/12 07:41:03;;;;;;;8.70;6.80;;;5.00;56.50;;;;;;5102733;28;20039;-79
2022/03/12 07:43:54;;;;;;;12.20;6.47;;;5.10;55.40;;;;;;5082850;28;20032;-81
2022/03/12 07:46:43;;;;;;;23.52;6.50;;;5.20;55.50;;;;;;5087249;28;20070;-77
2022/03/12 07:49:06;;;;;;;7.75;6.13;;;5.30;55.00;;;;;;5105374;28;20402;-76
2022/03/12 07:51:37;;;;;;;11.57;6.10;;;5.30;53.80;;;;;;5100873;28;20046;-77
2022/03/12 07:54:23;;;;;;;;;;;;;;;;;;;;;
2022/03/12 07:56:49;;;;;;;7.40;6.03;;;5.30;55.80;;;;;;5103833;28;20047;-78
2022/03/12 07:59:56;;;;;;;9.73;6.43;;;5.40;55.60;;;;;;5099521;28;20024;-77
2022/03/12 08:02:50;;;;;;;13.40;5.50;;;5.50;54.80;;;;;;5085282;28;20031;-77
2022/03/12 08:05:23;;;;;;;8.63;5.85;;;5.60;53.80;;;;;;5109157;28;20494;-77
2022/03/12 08:08:00;;;;;;;9.00;5.68;;;5.60;53.70;;;;;;5102034;28;20020;-79
2022/03/12 08:11:25;;;;;;;12.93;5.93;;;5.60;52.80;;;;;;5077876;28;20024;-77
2022/03/12 08:13:29;;;;;;;10.68;6.15;;;5.60;52.80;;;;;;5103161;28;20647;-80
2022/03/12 08:16:03;;;;;;;8.10;5.68;;;5.60;52.70;;;;;;5083895;28;20605;-79
2022/03/12 08:18:29;;;;;;;7.70;6.03;;;5.70;53.00;;;;;;5100909;27;20020;-79
2022/03/12 08:21:12;;;;;;;8.55;5.68;;;5.80;53.50;;;;;;5100663;28;20016;-78
2022/03/12 08:23:41;;;;;;;7.55;5.93;;;5.90;54.00;;;;;;5066660;28;20039;-76
2022/03/12 08:26:08;;;;;;;10.35;6.32;;;5.90;52.80;;;;;;5102252;28;20059;-78
2022/03/12 08:28:36;;;;;;;14.23;5.82;;;6.00;53.30;;;;;;5081660;28;20032;-78
2022/03/12 08:31:05;;;;;;;8.68;6.22;;;6.20;52.70;;;;;;5101306;28;20023;-77
2022/03/12 08:33:32;;;;;;;6.85;5.68;;;6.10;53.40;;;;;;5100051;28;20073;-78
2022/03/12 08:36:05;;;;;;;12.05;5.90;;;6.20;51.90;;;;;;5083933;28;20028;-78
2022/03/12 08:38:32;;;;;;;;;;;6.30;52.50;;;;;;5100422;28;20027;-77
2022/03/12 08:41:05;;;;;;;7.47;6.13;;;6.40;53.00;;;;;;5097522;28;19962;-78
2022/03/12 08:43:32;;;;;;;12.68;6.03;;;6.50;52.90;;;;;;5078874;28;20036;-77
2022/03/12 08:46:00;;;;;;;9.75;6.45;;;6.50;52.50;;;;;;5077435;28;20031;-77
2022/03/12 08:48:40;;;;;;;11.98;6.35;;;6.60;51.90;;;;;;5083779;28;20110;-78
2022/03/12 08:51:06;;;;;;;7.45;5.97;;;6.70;52.50;;;;;;5078211;28;20025;-78
2022/03/12 08:53:38;;;;;;;10.80;6.60;;;6.80;52.20;;;;;;5082730;28;20025;-77
2022/03/12 08:56:08;;;;;;;8.27;6.23;;;7.00;51.80;;;;;;5060251;28;20035;-77
2022/03/12 08:58:41;;;;;;;9.38;6.13;;;7.00;51.10;;;;;;5077457;28;20275;-78
2022/03/12 09:01:08;;;;;;;10.13;6.25;;;7.00;51.40;;;;;;5060262;28;20059;-78
2022/03/12 09:03:37;;;;;;;10.18;6.30;;;7.10;51.00;;;;;;5082598;28;20127;-80
2022/03/12 09:06:29;;;;;;;9.18;5.57;;;7.20;51.40;;;;;;5078040;28;20021;-77
2022/03/12 09:09:15;;;;;;;10.07;5.80;;;7.30;50.50;;;;;;5073372;28;20475;-77
2022/03/12 09:11:41;;;;;;;9.23;6.40;;;7.40;51.60;;;;;;5079509;28;20052;-75
2022/03/12 09:14:07;;;;;;;10.20;5.88;;;7.40;50.00;;;;;;5067924;28;20085;-75
2022/03/12 09:16:36;;;;;;;8.27;6.50;;;7.40;49.40;;;;;;5082750;28;20047;-75
2022/03/12 09:19:02;;;;;;;10.23;6.03;;;7.50;49.90;;;;;;5074186;28;20024;-75
2022/03/12 09:21:28;;;;;;;8.45;5.72;;;7.60;49.40;;;;;;5086553;28;20118;-76
2022/03/12 09:24:03;;;;;;;6.57;5.20;;;7.70;48.90;;;;;;5076741;28;20112;-76
2022/03/12 09:26:31;;;;;;;8.07;5.70;;;7.80;48.90;;;;;;5083897;28;20020;-76
2022/03/12 09:28:57;;;;;;;11.52;6.10;;;7.90;48.50;;;;;;5075952;28;20478;-75
2022/03/12 09:31:24;;;;;;;6.25;5.60;;;7.90;49.00;;;;;;5077506;28;20033;-75
2022/03/12 09:33:50;;;;;;;8.00;4.82;;;8.00;48.40;;;;;;5082945;28;20020;-75
2022/03/12 09:36:16;;;;;;;9.40;5.60;;;8.10;48.90;;;;;;5064424;28;20032;-75
2022/03/12 09:38:42;;;;;;;9.40;5.65;;;8.10;48.10;;;;;;5075949;28;20047;-75
2022/03/12 09:41:08;;;;;;;8.73;6.35;;;8.20;54.60;;;;;;5058250;28;20040;-76
2022/03/12 09:43:51;;;;;;;10.40;5.78;;;8.30;50.00;;;;;;5062498;28;20103;-76
2022/03/12 09:46:18;;;;;;;9.02;5.70;;;8.50;61.00;;;;;;5074352;28;20040;-75
2022/03/12 09:48:46;;;;;;;8.07;5.05;;;8.70;54.50;;;;;;5080500;28;20068;-75
2022/03/12 09:51:17;;;;;;;13.82;8.25;;;8.80;51.10;;;;;;5076450;28;20029;-75
2022/03/12 09:53:45;;;;;;;14.10;8.32;;;9.00;57.30;;;;;;5081349;28;20017;-75
2022/03/12 09:56:18;;;;;;;11.38;7.13;;;9.00;49.20;;;;;;5077349;28;20037;-76
2022/03/12 09:58:44;;;;;;;8.57;5.90;;;9.00;50.00;;;;;;5081423;28;20114;-75
2022/03/12 10:01:10;;;;;;;9.80;5.95;;;9.00;51.10;;;;;;5077401;28;20039;-75
2022/03/12 10:03:38;;;;;;;8.05;6.40;;;9.10;63.40;;;;;;5063244;28;20368;-75
2022/03/12 10:06:15;;;;;;;15.52;8.18;;;9.40;58.70;;;;;;5059045;28;20040;-75
2022/03/12 10:08:42;;;;;;;18.90;11.48;;;9.60;49.60;;;;;;5065783;28;20032;-75
2022/03/12 10:11:08;;;;;;;22.38;13.18;;;9.70;56.80;;;;;;5084858;28;20036;-75
2022/03/12 10:13:36;;;;;;;15.07;9.95;;;9.90;51.10;;;;;;5077990;28;20399;-75
2022/03/12 10:16:18;;;;;;;9.38;6.63;;;10.00;47.90;;;;;;5076886;28;20094;-75
2022/03/12 10:18:48;;;;;;;8.30;6.28;;;9.80;48.90;;;;;;5081308;28;20016;-75
2022/03/12 10:21:15;;;;;;;15.20;7.13;;;9.60;46.90;;;;;;5082044;28;20047;-76
2022/03/12 10:23:41;;;;;;;7.10;5.18;;;9.60;47.20;;;;;;5076893;28;20013;-75
2022/03/12 10:26:07;;;;;;;10.95;5.45;;;9.70;48.30;;;;;;5058994;28;20107;-75
2022/03/12 10:28:36;;;;;;;6.90;5.13;;;9.80;46.30;;;;;;5081343;28;20112;-75
2022/03/12 10:31:07;;;;;;;8.85;6.00;;;10.00;47.10;;;;;;5058951;28;20028;-75
2022/03/12 10:33:34;;;;;;;8.07;5.07;;;10.20;49.10;;;;;;5063004;28;20024;-75
2022/03/12 10:36:17;;;;;;;7.22;4.63;;;10.40;46.30;;;;;;5080131;28;20032;-75
2022/03/12 10:38:46;;;;;;;7.57;4.82;;;10.50;48.20;;;;;;5065869;28;20016;-75
2022/03/12 10:41:12;;;;;;;7.35;5.15;;;10.70;45.50;;;;;;5078235;28;20047;-75
2022/03/12 10:43:51;;;;;;;7.82;4.90;;;10.70;45.20;;;;;;5063740;28;20020;-75
2022/03/12 10:46:30;;;;;;;6.25;4.50;;;10.80;46.30;;;;;;5077670;28;20035;-74
2022/03/12 10:49:08;;;;;;;9.30;5.57;;;10.90;46.90;;;;;;5072114;28;20052;-75
2022/03/12 10:51:40;;;;;;;9.35;5.53;;;11.00;44.20;;;;;;5076653;28;20012;-75
2022/03/12 10:54:15;;;;;;;5.90;4.32;;;11.00;47.90;;;;;;5078259;28;20434;-75
2022/03/12 10:56:43;;;;;;;12.75;7.05;;;11.10;47.10;;;;;;5078355;28;20043;-75
2022/03/12 10:59:31;;;;;;;7.20;5.18;;;11.20;45.60;;;;;;5059919;28;20029;-75
2022/03/12 11:02:00;;;;;;;6.03;4.93;;;11.20;43.70;;;;;;5059478;28;20036;-75
2022/03/12 11:04:30;;;;;;;5.80;3.90;;;11.30;44.00;;;;;;5079904;28;20098;-75
2022/03/12 11:07:25;;;;;;;11.32;5.20;;;11.40;44.50;;;;;;5081665;28;20036;-75
2022/03/12 11:10:00;;;;;;;6.22;4.30;;;11.60;47.90;;;;;;5047064;28;20020;-75
2022/03/12 11:12:30;;;;;;;9.55;4.28;;;11.70;42.80;;;;;;5083711;28;20036;-75
2022/03/12 11:15:04;;;;;;;7.07;4.53;;;11.70;40.30;;;;;;5080857;28;20391;-75
2022/03/12 11:17:44;;;;;;;8.65;3.90;;;11.70;42.90;;;;;;5063663;28;20042;-76
2022/03/12 11:20:36;;;;;;;6.93;4.88;;;11.80;41.20;;;;;;5081441;28;20090;-75
2022/03/12 11:23:27;;;;;;;;;;;;;;;;;;;;;
2022/03/12 11:26:07;;;;;;;6.45;4.30;;;10.00;53.60;;;;;;5084052;28;20380;-75
2022/03/12 11:28:52;;;;;;;9.73;5.13;;;9.60;54.10;;;;;;5084445;28;20108;-75
2022/03/12 11:31:46;;;;;;;9.50;5.70;;;8.90;57.60;;;;;;5061819;28;20118;-75
2022/03/12 11:34:19;;;;;;;9.13;4.97;;;8.40;55.30;;;;;;5060164;28;20494;-75
2022/03/12 11:36:48;;;;;;;6.40;5.18;;;8.50;57.50;;;;;;5080351;28;20044;-75
2022/03/12 11:39:40;;;;;;;10.63;5.28;;;8.50;58.30;;;;;;5062648;28;20453;-75
2022/03/12 11:42:12;;;;;;;6.80;5.03;;;8.20;57.50;;;;;;5094189;28;20044;-75
2022/03/12 11:45:06;;;;;;;12.48;5.40;;;8.20;57.40;;;;;;5099655;28;20072;-75
2022/03/12 11:47:40;;;;;;;9.02;5.90;;;8.30;58.50;;;;;;5101815;28;20020;-75
2022/03/12 11:50:22;;;;;;;16.13;5.40;;;8.40;55.40;;;;;;5106089;28;20038;-75
2022/03/12 11:52:54;;;;;;;8.02;5.25;;;8.40;56.90;;;;;;5094194;28;20017;-75
2022/03/12 11:55:30;;;;;;;13.07;5.97;;;8.20;58.30;;;;;;5100696;28;20077;-75
2022/03/12 11:58:00;;;;;;;7.63;4.90;;;8.40;58.80;;;;;;5103414;28;20042;-75
2022/03/12 12:00:30;;;;;;;6.95;4.85;;;8.30;57.40;;;;;;5099097;28;20398;-75
2022/03/12 12:02:57;;;;;;;6.90;4.72;;;8.40;59.30;;;;;;5101291;28;20038;-75
2022/03/12 12:05:25;;;;;;;25.17;5.15;;;8.20;59.90;;;;;;5107655;28;20077;-75
2022/03/12 12:07:59;;;;;;;5.40;4.57;;;8.20;62.90;;;;;;5102594;28;20478;-75
2022/03/12 12:10:35;;;;;;;9.88;4.65;;;8.40;59.80;;;;;;5097590;28;20367;-75
2022/03/12 12:13:06;;;;;;;16.80;5.63;;;8.30;61.30;;;;;;5086816;28;20051;-75
2022/03/12 12:15:36;;;;;;;9.73;5.28;;;8.40;62.70;;;;;;5071710;28;20464;-75
2022/03/12 12:18:13;;;;;;;9.25;5.05;;;8.30;62.60;;;;;;5103199;28;20516;-75
2022/03/12 12:20:54;;;;;;;9.23;5.45;;;8.20;62.50;;;;;;5080745;28;20047;-75
2022/03/12 12:23:41;;;;;;;10.73;6.05;;;8.50;64.60;;;;;;5103692;28;20076;-75
2022/03/12 12:26:11;;;;;;;13.93;5.78;;;10.80;59.10;;;;;;5099172;28;20601;-75
2022/03/12 12:28:53;;;;;;;7.13;5.07;;;14.00;55.40;;;;;;5103646;28;20020;-75
2022/03/12 12:31:24;;;;;;;5.72;5.05;;;14.00;53.40;;;;;;5099052;28;20507;-75
2022/03/12 12:33:55;;;;;;;9.57;5.30;;;14.20;52.00;;;;;;5093342;28;20066;-75
2022/03/12 12:36:24;;;;;;;7.47;5.05;;;14.20;53.00;;;;;;5098647;28;20372;-75
2022/03/12 12:39:09;;;;;;;8.27;5.65;;;14.30;52.00;;;;;;5102740;28;20024;-75
2022/03/12 12:42:01;;;;;;;8.52;5.88;;;14.00;52.10;;;;;;5099619;28;20048;-75
2022/03/12 12:44:39;;;;;;;7.53;5.50;;;14.00;53.30;;;;;;5103058;28;20402;-75
2022/03/12 12:47:07;;;;;;;7.63;5.50;;;14.50;51.90;;;;;;5101616;28;20027;-75
2022/03/12 12:49:36;;;;;;;7.38;4.97;;;15.00;52.90;;;;;;5103784;28;20031;-75
2022/03/12 12:52:11;;;;;;;9.00;5.45;;;15.00;52.90;;;;;;5102033;28;20015;-75
2022/03/12 12:54:56;;;;;;;8.63;5.88;;;15.00;53.00;;;;;;5105113;28;20028;-75
2022/03/12 12:57:50;;;;;;;6.90;5.25;;;15.10;52.20;;;;;;5099270;28;20181;-75
2022/03/12 13:00:30;;;;;;;10.02;5.47;;;15.40;52.00;;;;;;5081480;28;20076;-75
2022/03/12 13:02:58;;;;;;;8.93;5.80;;;14.70;53.40;;;;;;5095123;28;20070;-75
2022/03/12 13:05:58;;;;;;;8.77;5.47;;;14.60;52.80;;;;;;5098467;28;20524;-76
2022/03/12 13:08:44;;;;;;;8.52;6.07;;;15.90;53.30;;;;;;5083823;28;20591;-75
2022/03/12 13:11:32;;;;;;;7.32;5.15;;;15.50;54.60;;;;;;5100153;28;20482;-75
2022/03/12 13:14:02;;;;;;;7.35;5.25;;;17.00;53.20;;;;;;5093751;28;20032;-75
2022/03/12 13:16:47;;;;;;;7.57;5.55;;;17.60;50.70;;;;;;5099177;28;20081;-75
2022/03/12 13:19:49;;;;;;;7.95;5.78;;;17.90;49.70;;;;;;5103948;28;20024;-75
2022/03/12 13:22:17;;;;;;;6.13;4.88;;;17.70;50.20;;;;;;5098104;28;20036;-75
2022/03/12 13:25:01;;;;;;;8.10;4.95;;;18.50;47.80;;;;;;5097621;28;20023;-75
2022/03/12 13:27:41;;;;;;;8.95;5.57;;;18.00;47.30;;;;;;5082357;28;20432;-75
2022/03/12 13:30:22;;;;;;;8.98;5.57;;;17.30;49.10;;;;;;5081523;28;20107;-75
2022/03/12 13:32:56;;;;;;;8.38;5.45;;;17.60;48.10;;;;;;5081799;28;20054;-75
2022/03/12 13:35:31;;;;;;;7.43;5.60;;;18.10;47.40;;;;;;5096293;28;20043;-75
2022/03/12 13:38:01;;;;;;;9.02;4.78;;;18.50;47.10;;;;;;5084745;28;20046;-75
2022/03/12 13:40:28;;;;;;;7.13;5.15;;;18.00;47.90;;;;;;5088405;28;20020;-75
2022/03/12 13:43:00;;;;;;;7.00;5.50;;;17.80;47.80;;;;;;5102307;28;20047;-75
2022/03/12 13:45:33;;;;;;;9.68;5.70;;;17.30;46.80;;;;;;5097772;28;20027;-75
2022/03/12 13:48:03;;;;;;;12.45;5.43;;;17.30;47.90;;;;;;5101752;27;20553;-75
2022/03/12 13:50:30;;;;;;;9.65;6.18;;;17.30;48.20;;;;;;5086992;28;20367;-75
2022/03/12 13:52:59;;;;;;;12.85;5.35;;;17.90;48.20;;;;;;5101336;28;20023;-76
2022/03/12 13:55:34;;;;;;;10.48;6.03;;;19.20;46.60;;;;;;5097650;28;20030;-75
2022/03/12 13:58:04;;;;;;;7.18;5.45;;;19.00;46.20;;;;;;5097424;28;20032;-75
2022/03/12 14:00:35;;;;;;;9.77;5.50;;;19.20;45.80;;;;;;5078879;28;20019;-75
2022/03/12 14:03:02;;;;;;;8.95;5.68;;;19.00;46.60;;;;;;5083777;28;20026;-76
2022/03/12 14:05:39;;;;;;;8.02;5.75;;;18.50;47.60;;;;;;5077544;28;20035;-75
2022/03/12 14:08:19;;;;;;;9.18;6.45;;;19.00;46.70;;;;;;5099253;28;20020;-75
2022/03/12 14:10:45;;;;;;;7.55;5.60;;;17.50;47.70;;;;;;5103125;28;20028;-75
2022/03/12 14:13:11;;;;;;;11.73;5.60;;;16.60;47.80;;;;;;5101814;28;20478;-75
2022/03/12 14:15:37;;;;;;;12.70;5.22;;;17.00;48.00;;;;;;5096742;28;20036;-75
2022/03/12 14:18:07;;;;;;;12.68;6.18;;;18.00;47.40;;;;;;5101675;28;20036;-75
2022/03/12 14:20:43;;;;;;;9.32;5.88;;;18.00;46.50;;;;;;5096367;28;20084;-75
2022/03/12 14:23:09;;;;;;;10.50;5.55;;;17.10;48.80;;;;;;5101696;28;20020;-75
2022/03/12 14:25:35;;;;;;;12.93;6.15;;;17.40;48.70;;;;;;5097058;28;20107;-75
2022/03/12 14:28:05;;;;;;;16.45;7.15;;;18.20;48.70;;;;;;5101477;28;20073;-75
2022/03/12 14:30:32;;;;;;;13.50;6.72;;;17.60;49.60;;;;;;5076639;28;20395;-75
2022/03/12 14:32:59;;;;;;;9.30;6.38;;;17.30;49.40;;;;;;5102340;28;20020;-76
2022/03/12 14:35:28;;;;;;;11.75;6.60;;;16.80;51.40;;;;;;5096308;28;20032;-75
2022/03/12 14:37:56;;;;;;;13.05;5.53;;;16.30;52.50;;;;;;5101008;28;20521;-75
2022/03/12 14:40:22;;;;;;;11.38;6.20;;;17.20;50.40;;;;;;5101876;28;20126;-75
2022/03/12 14:42:50;;;;;;;12.70;5.75;;;17.50;49.60;;;;;;5085274;28;20044;-75
2022/03/12 14:45:22;;;;;;;7.80;5.68;;;17.90;48.30;;;;;;5084004;28;20088;-75
2022/03/12 14:47:51;;;;;;;9.35;5.75;;;17.50;46.20;;;;;;5077110;28;20084;-75
2022/03/12 14:53:44;;;;;;;7.45;5.78;;;17.10;47.00;;;;;;5101914;28;20118;-75
2022/03/12 14:56:14;;;;;;;11.20;5.82;;;17.50;45.90;;;;;;5065689;28;20031;-76
2022/03/12 14:58:41;;;;;;;10.68;6.18;;;17.30;49.30;;;;;;5082451;28;20028;-75
2022/03/12 15:01:24;;;;;;;8.65;5.38;;;17.00;48.10;;;;;;5082273;28;20020;-75
2022/03/12 15:03:54;;;;;;;6.80;5.68;;;17.10;46.00;;;;;;5080605;28;20069;-75
2022/03/12 15:06:21;;;;;;;7.30;5.65;;;17.30;47.00;;;;;;5083030;28;20068;-75
2022/03/12 15:08:47;;;;;;;7.68;5.50;;;17.40;46.80;;;;;;5080050;28;20417;-75
2022/03/12 15:11:19;;;;;;;8.93;5.30;;;17.70;45.90;;;;;;5107924;28;20034;-75
2022/03/12 15:13:48;;;;;;;13.20;6.40;;;18.20;45.60;;;;;;5094555;28;20020;-75
2022/03/12 15:16:28;;;;;;;10.57;6.22;;;18.30;46.10;;;;;;5105456;28;20484;-75
2022/03/12 15:18:57;;;;;;;7.75;5.13;;;18.10;47.10;;;;;;5095448;28;20482;-75
2022/03/12 15:21:23;;;;;;;10.63;6.18;;;18.40;45.30;;;;;;5106332;28;20031;-75
2022/03/12 15:23:50;;;;;;;7.28;5.85;;;17.60;44.50;;;;;;5099352;28;20508;-75
2022/03/12 15:26:16;;;;;;;8.95;6.72;;;16.70;44.80;;;;;;5105726;28;20019;-75
2022/03/12 15:29:06;;;;;;;9.13;6.60;;;16.40;51.00;;;;;;5099847;28;20107;-75
2022/03/12 15:31:31;;;;;;;9.02;6.15;;;15.90;51.40;;;;;;5099827;28;20406;-75
2022/03/12 15:33:59;;;;;;;8.07;5.75;;;15.40;51.60;;;;;;5102720;28;20024;-75
2022/03/12 15:36:26;;;;;;;7.20;5.43;;;15.30;51.40;;;;;;5087089;28;20028;-75
2022/03/12 15:39:00;;;;;;;10.18;6.10;;;15.30;52.40;;;;;;5100732;28;20035;-75
2022/03/12 15:41:27;;;;;;;8.77;6.10;;;15.70;51.50;;;;;;5076916;28;20123;-75
2022/03/12 15:43:58;;;;;;;6.78;5.65;;;15.80;51.40;;;;;;5064748;28;20089;-75
2022/03/12 15:46:28;;;;;;;8.27;5.57;;;14.60;53.40;;;;;;5080082;28;20024;-75
2022/03/12 15:48:58;;;;;;;7.90;5.95;;;13.70;55.00;;;;;;5082005;28;20020;-75
2022/03/12 15:51:25;;;;;;;9.95;6.90;;;14.30;55.30;;;;;;5079267;28;20028;-75
2022/03/12 15:53:51;;;;;;;11.35;6.18;;;15.30;54.80;;;;;;5084876;28;20494;-76
2022/03/12 15:56:17;;;;;;;8.35;5.65;;;16.10;53.10;;;;;;5080344;28;20372;-75
2022/03/12 15:58:45;;;;;;;7.32;5.95;;;16.00;52.90;;;;;;5083151;28;20123;-75
2022/03/12 16:01:12;;;;;;;12.90;6.18;;;15.90;52.70;;;;;;5079427;28;20025;-75
2022/03/12 16:03:38;;;;;;;11.98;6.22;;;16.20;52.80;;;;;;5083334;28;20474;-75
2022/03/12 16:06:04;;;;;;;7.93;5.70;;;15.10;54.40;;;;;;5079427;28;20024;-75
2022/03/12 16:08:32;;;;;;;8.43;5.97;;;15.10;53.80;;;;;;5065488;28;20027;-75
2022/03/12 16:11:02;;;;;;;8.93;5.88;;;14.80;54.90;;;;;;5079192;28;20029;-75
2022/03/12 16:13:28;;;;;;;13.48;6.00;;;13.20;56.50;;;;;;5065136;28;20038;-75
2022/03/12 16:15:55;;;;;;;11.63;6.40;;;11.80;58.70;;;;;;5060936;28;20063;-75
2022/03/12 16:18:22;;;;;;;10.35;6.28;;;11.20;61.60;;;;;;5083175;28;20032;-75
2022/03/12 16:20:53;;;;;;;8.07;6.00;;;11.40;62.10;;;;;;5078918;28;20124;-75
2022/03/12 16:23:22;;;;;;;7.63;5.60;;;12.10;60.60;;;;;;5083362;28;20020;-75
2022/03/12 16:25:52;;;;;;;14.15;5.82;;;12.40;59.30;;;;;;5065695;28;20471;-75
2022/03/12 16:28:18;;;;;;;8.07;6.32;;;12.50;60.00;;;;;;5083270;28;20034;-75
2022/03/12 16:30:47;;;;;;;7.45;5.68;;;12.50;60.50;;;;;;5078734;28;20033;-75
2022/03/12 16:33:14;;;;;;;10.35;6.47;;;11.70;61.20;;;;;;5082873;28;20031;-75
2022/03/12 16:35:43;;;;;;;11.02;5.97;;;11.00;62.50;;;;;;5078646;28;20029;-75
2022/03/12 16:38:12;;;;;;;8.95;5.90;;;10.70;64.40;;;;;;5083033;28;20048;-75
2022/03/12 16:40:48;;;;;;;9.52;5.85;;;10.20;64.80;;;;;;5078621;28;20471;-75
2022/03/12 16:43:19;;;;;;;10.70;5.65;;;9.80;66.50;;;;;;5103324;28;20142;-75
2022/03/12 16:45:47;;;;;;;9.18;6.13;;;9.40;67.70;;;;;;5098761;28;20077;-75
2022/03/12 16:48:18;;;;;;;9.25;5.63;;;8.90;68.20;;;;;;5102950;28;20554;-75
2022/03/12 16:50:44;;;;;;;8.77;5.75;;;8.50;68.90;;;;;;5080464;28;20020;-75
2022/03/12 16:53:15;;;;;;;8.60;5.80;;;8.10;69.10;;;;;;5102825;28;20031;-75
2022/03/12 16:55:42;;;;;;;7.45;5.70;;;7.90;68.80;;;;;;5098742;28;20020;-75
2022/03/12 16:58:08;;;;;;;7.97;5.63;;;7.70;68.90;;;;;;5102904;28;20493;-75
2022/03/12 17:00:35;;;;;;;7.00;5.95;;;7.60;67.90;;;;;;5098198;28;20015;-75
2022/03/12 17:03:04;;;;;;;6.00;5.18;;;7.50;69.50;;;;;;5102351;28;20031;-75
2022/03/12 17:05:38;;;;;;;8.13;5.55;;;7.30;70.70;;;;;;5079028;28;20432;-75
2022/03/12 17:08:05;;;;;;;8.90;5.78;;;7.20;72.00;;;;;;5103389;28;20035;-75
2022/03/12 17:10:31;;;;;;;9.75;6.15;;;7.10;72.50;;;;;;5098502;28;20020;-75
2022/03/12 17:12:59;;;;;;;10.70;6.28;;;7.00;73.10;;;;;;5099313;28;20027;-75
2022/03/12 17:15:25;;;;;;;7.75;5.43;;;7.00;74.30;;;;;;5106184;28;20221;-75
2022/03/12 17:18:03;;;;;;;9.18;6.40;;;6.90;74.50;;;;;;5100945;28;20224;-75
2022/03/12 17:20:31;;;;;;;9.30;6.07;;;6.80;74.70;;;;;;5089399;28;20496;-75
2022/03/12 17:23:01;;;;;;;13.65;7.50;;;6.80;75.20;;;;;;5101795;28;20023;-75
2022/03/12 17:25:27;;;;;;;14.07;7.43;;;6.80;75.50;;;;;;5089110;28;20162;-75
2022/03/12 17:27:57;;;;;;;10.00;6.93;;;6.70;75.90;;;;;;5099011;28;20095;-75
2022/03/12 17:30:24;;;;;;;12.68;7.13;;;6.70;75.60;;;;;;5105837;28;20034;-75
2022/03/12 17:32:51;;;;;;;8.82;6.22;;;6.60;75.60;;;;;;5100456;28;20542;-75
2022/03/12 17:35:18;;;;;;;9.43;6.80;;;6.60;75.50;;;;;;5078125;28;20047;-75